.
WxDataArchive / Data Records for 2009-04-25
2009-04-24 April 2009 2009-04-26

Data Records for Saturday, 25 April 2009

Time	Temp	Chill	HIndex	Humid	Dewpt	 Wind 	HiWind	WindDir	Rain 	Barom 
-----	----	-----	------	-----	-----	------	------	-------	-----	----- 
00:00	70.8	70.8	70.8	35	41.8	2	7	248	0.00	29.961 
00:05	70.8	70.8	70.8	35	41.8	2	11	248	0.00	29.961 
00:10	70.8	70.8	70.8	36	42.5	2	6	248	0.00	29.961 
00:15	70.6	70.6	70.6	35	41.6	3	8	248	0.00	29.962 
00:20	70.8	70.8	70.8	36	42.5	3	6	248	0.00	29.962 
00:25	70.6	70.6	70.6	35	41.6	3	9	248	0.00	29.962 
00:30	70.6	70.6	70.6	36	42.3	2	9	248	0.00	29.963 
00:35	70.4	70.4	70.4	36	42.2	3	7	248	0.00	29.963 
00:40	70.3	70.3	70.3	37	42.8	1	4	248	0.00	29.963 
00:45	69.9	69.9	69.9	37	42.4	2	6	248	0.00	29.965 
00:50	69.9	69.9	69.9	37	42.4	2	7	248	0.00	29.965 
00:55	69.9	69.9	69.9	36	41.7	2	6	270	0.00	29.965 
01:00	69.9	69.9	69.9	37	42.4	3	9	270	0.00	29.969 
01:05	69.9	69.9	69.9	36	41.7	3	10	248	0.00	29.969 
01:10	69.9	69.9	69.9	37	42.4	3	10	270	0.00	29.969 
01:15	69.9	69.9	69.9	37	42.4	2	7	248	0.00	29.967 
01:20	69.8	69.8	69.8	37	42.3	2	5	248	0.00	29.967 
01:25	69.6	69.6	69.6	38	42.9	2	7	248	0.00	29.967 
01:30	69.4	69.4	69.4	38	42.7	2	6	248	0.00	29.973 
01:35	69.4	69.4	69.4	38	42.7	2	6	248	0.00	29.973 
01:40	69.3	69.3	69.3	39	43.3	1	7	248	0.00	29.973 
01:45	69.1	69.1	69.1	39	43.1	2	6	248	0.00	29.977 
01:50	69.1	69.1	69.1	39	43.1	2	7	248	0.00	29.977 
01:55	69.1	69.1	69.1	39	43.1	2	5	248	0.00	29.977 
02:00	68.9	68.9	68.9	39	42.9	2	5	248	0.00	29.978 
02:05	68.8	68.8	68.8	40	43.5	2	5	270	0.00	29.978 
02:10	68.8	68.8	68.8	40	43.5	2	9	248	0.00	29.978 
02:15	68.6	68.6	68.6	40	43.3	2	9	248	0.00	29.975 
02:20	68.6	68.6	68.6	41	44.0	2	4	248	0.00	29.975 
02:25	68.4	68.4	68.4	41	43.8	2	4	248	0.00	29.975 
02:30	68.4	68.4	68.4	42	44.4	2	4	248	0.00	29.973 
02:35	68.3	68.3	68.3	42	44.3	2	9	248	0.00	29.973 
02:40	68.3	68.3	68.3	43	44.9	2	5	248	0.00	29.973 
02:45	68.3	68.3	68.3	43	44.9	2	6	248	0.00	29.967 
02:50	68.3	68.3	68.3	43	44.9	2	6	248	0.00	29.967 
02:55	68.3	68.3	68.3	43	44.9	3	7	248	0.00	29.967 
03:00	68.1	68.1	68.1	43	44.7	2	9	225	0.00	29.968 
03:05	68.1	68.1	68.1	44	45.4	3	6	248	0.00	29.968 
03:10	68.1	68.1	68.1	44	45.4	3	9	248	0.00	29.968 
03:15	67.9	67.9	67.9	45	45.8	2	11	248	0.00	29.976 
03:20	67.8	67.8	67.8	45	45.7	2	5	248	0.00	29.976 
03:25	67.6	67.6	67.6	45	45.5	2	9	248	0.00	29.976 
03:30	67.6	67.6	67.6	46	46.1	2	5	270	0.00	29.973 
03:35	67.4	67.4	67.4	46	45.9	2	7	248	0.00	29.973 
03:40	67.3	67.3	67.3	47	46.4	2	4	248	0.00	29.973 
03:45	67.1	67.1	67.1	47	46.2	2	5	248	0.00	29.980 
03:50	67.1	67.1	67.1	47	46.2	2	9	270	0.00	29.980 
03:55	66.9	66.9	66.9	48	46.6	2	6	248	0.00	29.980 
04:00	66.8	66.8	66.8	49	47.0	2	6	248	0.00	29.981 
04:05	66.8	66.8	66.8	49	47.0	2	7	248	0.00	29.981 
04:10	66.6	66.6	66.6	49	46.8	2	6	248	0.00	29.981 
04:15	66.4	66.4	66.4	50	47.2	2	7	248	0.00	29.989 
04:20	66.3	66.3	66.3	50	47.1	1	5	248	0.00	29.989 
04:25	66.3	66.3	66.3	51	47.6	2	7	248	0.00	29.989 
04:30	66.1	66.1	66.1	51	47.4	2	5	248	0.00	29.989 
04:35	66.0	66.0	66.0	51	47.3	2	5	248	0.00	29.989 
04:40	66.0	66.0	66.0	52	47.9	2	5	270	0.00	29.989 
04:45	65.8	65.8	65.8	53	48.2	2	4	248	0.00	29.994 
04:50	65.8	65.8	65.8	53	48.2	2	5	248	0.00	29.994 
04:55	66.0	66.0	66.0	53	48.4	2	5	248	0.00	29.994 
05:00	66.0	66.0	66.0	54	48.9	2	6	248	0.00	29.998 
05:05	66.0	66.0	66.0	54	48.9	2	5	248	0.00	29.998 
05:10	66.0	66.0	66.0	54	48.9	2	4	248	0.00	29.998 
05:15	66.0	66.0	66.0	54	48.9	2	6	248	0.00	30.003 
05:20	65.8	65.8	65.8	55	49.2	2	7	248	0.00	30.003 
05:25	65.8	65.8	65.8	55	49.2	2	6	248	0.00	30.003 
05:30	65.8	65.8	65.8	56	49.7	2	7	248	0.00	30.005 
05:35	65.8	65.8	65.8	57	50.1	2	6	248	0.00	30.005 
05:40	65.6	65.6	65.6	57	49.9	1	5	225	0.00	30.005 
05:45	65.8	65.8	65.8	58	50.6	2	6	248	0.00	30.005 
05:50	65.8	65.8	65.8	58	50.6	2	6	248	0.00	30.005 
05:55	66.0	66.0	66.0	58	50.8	2	10	248	0.00	30.005 
06:00	66.4	66.4	66.4	58	51.2	3	9	270	0.00	30.003 
06:05	66.6	66.6	66.6	58	51.4	3	7	248	0.00	30.003 
06:10	67.3	67.3	67.3	57	51.5	4	7	248	0.00	30.003 
06:15	67.4	67.4	67.4	57	51.6	3	7	248	0.00	30.008 
06:20	67.8	67.8	67.8	56	51.5	4	12	248	0.00	30.008 
06:25	67.9	67.9	67.9	56	51.6	3	6	248	0.00	30.008 
06:30	67.8	67.8	67.8	56	51.5	3	9	248	0.00	30.015 
06:35	67.9	67.9	67.9	57	52.1	3	9	248	0.00	30.015 
06:40	67.9	67.9	67.9	57	52.1	3	7	248	0.00	30.015 
06:45	67.9	67.9	67.9	57	52.1	3	10	248	0.00	30.018 
06:50	67.8	67.8	67.8	57	52.0	3	10	248	0.00	30.018 
06:55	67.8	67.8	67.8	57	52.0	2	6	248	0.00	30.018 
07:00	67.4	67.4	67.4	58	52.1	1	4	248	0.00	30.024 
07:05	66.9	66.9	66.9	59	52.1	1	4	248	0.00	30.024 
07:10	66.6	66.6	66.6	60	52.3	1	4	225	0.00	30.024 
07:15	66.1	66.1	66.1	61	52.3	0	5	270	0.00	30.034 
07:20	65.6	65.6	65.6	61	51.8	1	7	315	0.00	30.034 
07:25	65.2	65.2	65.2	62	51.8	1	5	225	0.00	30.034 
07:30	65.0	65.0	65.0	62	51.7	1	3	248	0.00	30.038 
07:35	64.8	64.8	64.8	62	51.5	1	3	248	0.00	30.038 
07:40	65.0	65.0	65.0	62	51.7	1	4	270	0.00	30.038 
07:45	65.2	65.2	65.2	62	51.8	2	6	270	0.00	30.043 
07:50	65.5	65.5	65.5	62	52.1	1	5	270	0.00	30.043 
07:55	65.6	65.6	65.6	61	51.8	2	6	270	0.00	30.043 
08:00	65.8	65.8	65.8	61	52.0	1	4	248	0.00	30.046 
08:05	66.1	66.1	66.1	61	52.3	1	4	248	0.00	30.046 
08:10	66.4	66.4	66.4	61	52.5	1	5	248	0.00	30.046 
08:15	66.8	66.8	66.8	61	52.9	2	5	270	0.00	30.050 
08:20	67.3	67.3	67.3	60	52.9	2	6	248	0.00	30.050 
08:25	67.3	67.3	67.3	59	52.5	2	7	248	0.00	30.050 
08:30	67.4	67.4	67.4	60	53.0	2	6	248	0.00	30.053 
08:35	67.8	67.8	67.8	59	52.9	2	5	270	0.00	30.053 
08:40	68.1	68.1	68.1	59	53.2	2	7	248	0.00	30.053 
08:45	68.4	68.4	68.4	58	53.0	3	10	225	0.00	30.052 
08:50	68.9	68.9	68.9	59	54.0	2	4	248	0.00	30.052 
08:55	69.3	69.3	69.3	58	53.9	2	8	248	0.00	30.052 
09:00	69.8	69.8	69.8	58	54.3	3	8	248	0.00	30.051 
09:05	70.1	70.1	70.1	58	54.6	3	11	248	0.00	30.051 
09:10	70.4	70.4	70.4	57	54.4	3	9	248	0.00	30.051 
09:15	70.8	70.8	70.8	56	54.3	4	7	248	0.00	30.050 
09:20	71.3	71.3	71.3	56	54.8	4	9	248	0.00	30.050 
09:25	71.5	71.5	71.5	55	54.5	4	10	248	0.00	30.050 
09:30	71.8	71.8	71.8	55	54.7	4	11	248	0.00	30.051 
09:35	72.0	72.0	72.0	55	54.9	5	15	270	0.00	30.051 
09:40	72.1	72.1	72.1	55	55.0	3	8	248	0.00	30.051 
09:45	72.3	72.3	72.3	55	55.2	4	11	270	0.00	30.053 
09:50	72.8	72.8	72.8	55	55.7	3	11	270	0.00	30.053 
09:55	73.3	73.3	73.3	54	55.6	4	11	248	0.00	30.053 
10:00	73.7	73.7	73.7	54	56.0	4	9	270	0.00	30.049 
10:05	74.0	74.0	74.0	53	55.8	4	11	270	0.00	30.049 
10:10	74.4	74.4	74.4	53	56.1	4	17	248	0.00	30.049 
10:15	74.6	74.6	74.6	53	56.3	5	10	270	0.00	30.049 
10:20	75.1	75.1	77.7	50	55.2	5	14	270	0.00	30.049 
10:25	75.4	75.4	77.8	51	56.0	5	12	248	0.00	30.049 
10:30	75.8	75.8	78.0	51	56.4	5	12	270	0.00	30.052 
10:35	76.1	76.1	78.1	50	56.1	4	11	248	0.00	30.052 
10:40	76.3	76.3	78.2	49	55.7	6	17	270	0.00	30.052 
10:45	76.3	76.3	78.2	50	56.3	5	11	248	0.00	30.055 
10:50	76.5	76.5	78.3	50	56.5	4	14	270	0.00	30.055 
10:55	76.3	76.3	78.2	50	56.3	6	12	270	0.00	30.055 
11:00	76.3	76.3	78.2	50	56.3	5	10	270	0.00	30.050 
11:05	76.7	76.7	78.4	49	56.1	5	14	248	0.00	30.050 
11:10	76.5	76.5	78.3	50	56.5	6	16	270	0.00	30.050 
11:15	76.7	76.7	78.4	49	56.1	5	14	270	0.00	30.050 
11:20	76.8	76.8	78.5	49	56.2	4	12	248	0.00	30.050 
11:25	76.8	76.8	78.5	49	56.2	6	15	270	0.00	30.050 
11:30	76.8	76.8	78.4	48	55.6	6	14	270	0.00	30.057 
11:35	77.0	77.0	78.5	48	55.8	6	12	248	0.00	30.057 
11:40	76.8	76.8	78.5	49	56.2	6	17	270	0.00	30.057 
11:45	77.0	77.0	78.6	49	56.4	6	13	248	0.00	30.059 
11:50	77.6	77.6	78.9	48	56.3	5	10	248	0.00	30.059 
11:55	77.9	77.9	79.0	47	56.0	5	13	270	0.00	30.059 
12:00	77.9	77.9	79.0	47	56.0	6	15	270	0.00	30.050 
12:05	77.9	77.9	79.0	47	56.0	7	16	248	0.00	30.050 
12:10	78.1	78.1	79.2	48	56.8	6	15	270	0.00	30.050 
12:15	78.5	78.5	79.4	47	56.6	6	14	270	0.00	30.053 
12:20	78.8	78.8	79.6	46	56.2	5	13	270	0.00	30.053 
12:25	78.8	78.8	79.6	46	56.2	6	14	270	0.00	30.053 
12:30	78.8	78.8	79.6	46	56.2	6	12	270	0.00	30.056 
12:35	79.0	79.0	79.6	45	55.8	7	17	270	0.00	30.056 
12:40	79.4	79.4	79.8	44	55.6	7	15	248	0.00	30.056 
12:45	79.4	79.4	79.9	45	56.2	6	12	270	0.00	30.060 
12:50	79.0	79.0	79.7	46	56.4	6	12	270	0.00	30.060 
12:55	79.2	79.2	79.9	47	57.2	4	11	270	0.00	30.060 
13:00	79.6	79.6	80.1	46	57.0	4	12	248	0.00	30.051 
13:05	79.6	79.6	80.0	45	56.4	5	13	248	0.00	30.051 
13:10	79.4	79.4	80.0	46	56.8	5	18	270	0.00	30.051 
13:15	79.9	79.9	80.5	48	58.4	3	15	248	0.00	30.049 
13:20	80.1	80.1	80.5	46	57.4	4	12	270	0.00	30.049 
13:25	80.3	80.3	80.6	45	57.0	5	12	248	0.00	30.049 
13:30	80.3	80.3	80.5	44	56.4	6	13	270	0.00	30.048 
13:35	80.5	80.5	80.6	43	55.9	7	16	270	0.00	30.048 
13:40	80.3	80.3	80.3	42	55.1	7	16	270	0.00	30.048 
13:45	80.7	80.7	80.7	43	56.1	5	11	270	0.00	30.042 
13:50	81.1	81.1	80.8	41	55.1	5	10	248	0.00	30.042 
13:55	81.4	81.4	81.4	44	57.4	3	9	292	0.00	30.042 
14:00	81.1	81.1	80.9	42	55.8	5	10	270	0.00	30.043 
14:05	80.7	80.7	80.6	42	55.4	6	13	270	0.00	30.043 
14:10	80.9	80.9	80.9	43	56.3	4	12	248	0.00	30.043 
14:15	80.7	80.7	80.6	42	55.4	7	15	270	0.00	30.043 
14:20	80.9	80.9	80.8	42	55.6	5	13	270	0.00	30.043 
14:25	81.4	81.4	81.1	41	55.4	6	13	270	0.00	30.043 
14:30	81.2	81.2	80.9	41	55.2	7	14	270	0.00	30.042 
14:35	81.2	81.2	81.0	42	55.9	4	12	270	0.00	30.042 
14:40	81.1	81.1	80.9	42	55.8	6	13	270	0.00	30.042 
14:45	80.9	80.9	80.8	42	55.6	6	17	270	0.00	30.042 
14:50	81.2	81.2	81.2	44	57.2	4	10	248	0.00	30.042 
14:55	81.8	81.8	81.3	40	55.1	5	16	270	0.00	30.042 
15:00	82.2	82.2	81.9	42	56.8	5	13	248	0.00	30.038 
15:05	82.6	82.6	82.1	41	56.5	5	10	270	0.00	30.038 
15:10	82.4	82.4	81.7	39	54.9	6	18	270	0.00	30.038 
15:15	82.4	82.4	81.7	39	54.9	5	12	270	0.00	30.042 
15:20	83.0	83.0	82.2	39	55.5	6	16	270	0.00	30.042 
15:25	83.0	83.0	82.1	38	54.7	6	14	248	0.00	30.042 
15:30	82.8	82.8	82.0	39	55.3	6	13	270	0.00	30.038 
15:35	83.2	83.2	82.3	38	54.9	6	16	248	0.00	30.038 
15:40	83.4	83.4	82.4	38	55.1	5	12	248	0.00	30.038 
15:45	83.4	83.4	82.4	38	55.1	5	14	248	0.00	30.038 
15:50	83.6	83.6	82.4	36	53.8	6	12	270	0.00	30.038 
15:55	84.0	84.0	82.8	37	54.9	5	10	270	0.00	30.038 
16:00	83.8	83.8	82.5	36	54.0	6	14	270	0.00	30.041 
16:05	83.6	83.6	82.8	39	56.0	5	15	270	0.00	30.041 
16:10	83.4	83.4	82.4	38	55.1	4	12	248	0.00	30.041 
16:15	83.4	83.4	82.2	36	53.6	5	14	270	0.00	30.035 
16:20	83.2	83.2	82.0	36	53.4	6	15	248	0.00	30.035 
16:25	83.4	83.4	82.2	36	53.6	5	17	248	0.00	30.035 
16:30	83.6	83.6	82.2	35	53.0	7	17	270	0.00	30.029 
16:35	83.6	83.6	82.2	35	53.0	6	15	270	0.00	30.029 
16:40	83.8	83.8	82.8	38	55.5	4	13	248	0.00	30.029 
16:45	83.8	83.8	82.4	35	53.2	6	13	270	0.00	30.027 
16:50	83.6	83.6	82.4	36	53.8	7	15	248	0.00	30.027 
16:55	83.6	83.6	82.2	35	53.0	6	13	248	0.00	30.027 
17:00	83.4	83.4	82.2	36	53.6	5	16	248	0.00	30.030 
17:05	83.4	83.4	82.4	38	55.1	4	11	248	0.00	30.030 
17:10	83.4	83.4	82.3	37	54.4	6	14	270	0.00	30.030 
17:15	83.2	83.2	82.0	36	53.4	5	13	248	0.00	30.029 
17:20	83.2	83.2	81.9	35	52.7	6	15	248	0.00	30.029 
17:25	83.2	83.2	81.9	35	52.7	7	16	248	0.00	30.029 
17:30	83.4	83.4	82.2	36	53.6	5	12	270	0.00	30.028 
17:35	83.6	83.6	82.4	36	53.8	3	7	248	0.00	30.028 
17:40	83.6	83.6	82.1	34	52.2	6	16	270	0.00	30.028 
17:45	83.4	83.4	82.1	35	52.8	4	14	248	0.00	30.032 
17:50	83.2	83.2	81.9	35	52.7	6	13	270	0.00	30.032 
17:55	83.2	83.2	81.9	35	52.7	5	11	270	0.00	30.032 
18:00	83.2	83.2	81.9	35	52.7	5	15	270	0.00	30.039 
18:05	83.0	83.0	81.7	35	52.5	5	13	248	0.00	30.039 
18:10	83.0	83.0	81.7	35	52.5	6	13	270	0.00	30.039 
18:15	83.0	83.0	81.7	35	52.5	5	13	270	0.00	30.039 
18:20	83.0	83.0	81.7	35	52.5	4	11	248	0.00	30.039 
18:25	82.8	82.8	81.6	35	52.3	5	15	248	0.00	30.039 
18:30	82.4	82.4	81.3	36	52.7	5	15	248	0.00	30.042 
18:35	82.2	82.2	81.2	36	52.6	4	12	270	0.00	30.042 
18:40	82.2	82.2	81.2	36	52.6	4	12	248	0.00	30.042 
18:45	82.0	82.0	81.0	36	52.4	4	10	248	0.00	30.043 
18:50	81.8	81.8	80.9	36	52.2	3	6	270	0.00	30.043 
18:55	81.6	81.6	80.6	35	51.3	5	12	248	0.00	30.043 
19:00	81.4	81.4	80.5	35	51.1	4	8	248	0.00	30.044 
19:05	81.4	81.4	80.6	36	51.9	5	11	248	0.00	30.044 
19:10	81.2	81.2	80.3	35	50.9	3	8	270	0.00	30.044 
19:15	81.1	81.1	80.2	34	50.0	4	10	248	0.00	30.047 
19:20	80.9	80.9	80.1	34	49.9	3	10	248	0.00	30.047 
19:25	80.9	80.9	80.0	33	49.1	6	14	248	0.00	30.047 
19:30	80.7	80.7	79.9	34	49.7	4	11	248	0.00	30.051 
19:35	80.3	80.3	79.7	35	50.1	2	6	248	0.00	30.051 
19:40	80.1	80.1	79.6	35	50.0	2	6	248	0.00	30.051 
19:45	79.9	79.9	79.6	36	50.5	2	6	248	0.00	30.060 
19:50	79.6	79.6	79.4	36	50.3	3	6	248	0.00	30.060 
19:55	79.6	79.6	79.4	37	51.0	2	9	248	0.00	30.060 
20:00	79.4	79.4	79.3	37	50.8	3	7	248	0.00	30.064 
20:05	79.4	79.4	79.3	37	50.8	3	6	248	0.00	30.064 
20:10	79.2	79.2	79.2	37	50.7	2	5	248	0.00	30.064 
20:15	78.8	78.8	79.0	38	51.0	2	4	248	0.00	30.069 
20:20	78.8	78.8	79.0	38	51.0	2	5	248	0.00	30.069 
20:25	78.6	78.6	78.9	38	50.8	1	4	248	0.00	30.069 
20:30	78.3	78.3	78.8	38	50.6	2	5	248	0.00	30.075 
20:35	78.1	78.1	78.7	38	50.4	1	3	248	0.00	30.075 
20:40	77.7	77.7	78.5	38	50.0	1	5	248	0.00	30.075 
20:45	77.7	77.7	78.4	37	49.3	2	6	270	0.00	30.081 
20:50	77.6	77.6	78.4	37	49.2	2	9	248	0.00	30.081 
20:55	77.6	77.6	78.4	37	49.2	3	6	248	0.00	30.081 
21:00	77.4	77.4	78.3	37	49.1	1	4	248	0.00	30.091 
21:05	77.2	77.2	78.2	38	49.6	1	3	248	0.00	30.091 
21:10	76.8	76.8	78.0	38	49.2	1	4	248	0.00	30.091 
21:15	76.5	76.5	77.9	38	49.0	1	4	248	0.00	30.090 
21:20	76.3	76.3	77.8	38	48.8	1	3	248	0.00	30.090 
21:25	76.3	76.3	77.8	38	48.8	1	6	248	0.00	30.090 
21:30	76.1	76.1	77.8	39	49.3	1	4	248	0.00	30.092 
21:35	76.0	76.0	77.8	39	49.2	2	4	248	0.00	30.092 
21:40	75.8	75.8	77.7	39	49.1	1	5	248	0.00	30.092 
21:45	75.8	75.8	77.7	39	49.1	1	3	248	0.00	30.101 
21:50	75.4	75.4	77.6	39	48.7	1	3	248	0.00	30.101 
21:55	75.3	75.3	77.5	39	48.6	1	4	225	0.00	30.101 
22:00	75.3	75.3	77.5	39	48.6	1	4	248	0.00	30.107 
22:05	75.3	75.3	77.5	39	48.6	1	5	248	0.00	30.107 
22:10	75.1	75.1	77.5	39	48.4	1	7	248	0.00	30.107 
22:15	75.1	75.1	77.5	39	48.4	1	4	248	0.00	30.108 
22:20	75.1	75.1	77.5	39	48.4	2	6	248	0.00	30.108 
22:25	74.9	74.9	74.9	39	48.3	1	2	248	0.00	30.108 
22:30	74.6	74.6	74.6	39	48.0	2	5	248	0.00	30.107 
22:35	74.6	74.6	74.6	39	48.0	2	5	248	0.00	30.107 
22:40	74.6	74.6	74.6	39	48.0	1	3	248	0.00	30.107 
22:45	74.6	74.6	74.6	39	48.0	2	6	248	0.00	30.108 
22:50	74.6	74.6	74.6	39	48.0	2	4	248	0.00	30.108 
22:55	74.6	74.6	74.6	39	48.0	2	5	225	0.00	30.108 
23:00	74.4	74.4	74.4	39	47.8	2	6	248	0.00	30.111 
23:05	74.4	74.4	74.4	39	47.8	2	7	248	0.00	30.111 
23:10	74.4	74.4	74.4	39	47.8	2	6	248	0.00	30.111 
23:15	74.4	74.4	74.4	39	47.8	2	9	248	0.00	30.110 
23:20	74.4	74.4	74.4	39	47.8	2	6	248	0.00	30.110 
23:25	74.0	74.0	74.0	40	48.1	1	5	248	0.00	30.110 
23:30	73.9	73.9	73.9	40	48.0	1	4	248	0.00	30.110 
23:35	73.5	73.5	73.5	42	49.0	0	2	248	0.00	30.110 
23:40	73.0	73.0	73.0	43	49.2	0	3	248	0.00	30.110 
23:45	72.5	72.5	72.5	43	48.7	0	2	248	0.00	30.116 
23:50	71.8	71.8	71.8	44	48.7	0	2	248	0.00	30.116 
23:55	71.5	71.5	71.5	46	49.6	0	2	248	0.00	30.116 

CoCoRaHS
IN-AL-39
A2 Web Hosting
Creative Commons License
GoDaddy
search engine by freefind advanced

loaded 2018-11-20 15:33:22 • last modified 2010-11-18 10:43:29
Privacy PolicyDisclaimer
• wx.awcolley.com is powered by PmWiki v.2002016 •
• all content (unless otherwise noted) © 2018 A W Colley